Terminal Aerodrome Forecast
Issued by NWS

Home | Current Version | Previous Version | Text Only | Print | Product List | Glossary On
Versions: 1 2 3 4 5 6 7 8 9 10 11 12 13 14 15 16 17 18 19 20
000
FTAK31 PANC 232322
TAFACD
TAF
PACD 232322Z 2400/2424 13018KT P6SM VCSH SCT009 OVC014
      TEMPO 2400/2404 BKN009
     FM240400 13015KT P6SM SCT009 OVC012=

USA.gov is the U.S. government's official web portal to all federal, state and local government web resources and services.